createdAt,value
2022-12-08T00:05:49.225Z,6.90
2022-12-08T00:15:51.507Z,7.63
2022-12-08T00:25:54.240Z,7.43
2022-12-08T00:35:56.695Z,7.23
2022-12-08T00:45:59.151Z,7.23
2022-12-08T00:56:01.584Z,7.10
2022-12-08T01:06:05.933Z,6.87
2022-12-08T01:16:09.279Z,7.50
2022-12-08T01:26:13.965Z,7.03
2022-12-08T01:36:25.636Z,6.50
2022-12-08T01:46:30.899Z,7.37
2022-12-08T01:56:44.166Z,7.40
2022-12-08T02:06:49.517Z,7.33
2022-12-08T02:17:09.086Z,7.43
2022-12-08T02:27:42.190Z,6.70
2022-12-08T02:37:49.211Z,7.03
2022-12-08T02:47:52.810Z,7.47
2022-12-08T02:58:00.924Z,6.80
2022-12-08T03:08:12.317Z,8.30
2022-12-08T03:18:19.450Z,8.40
2022-12-08T03:28:22.147Z,7.90
2022-12-08T03:38:24.608Z,8.17
2022-12-08T03:48:27.083Z,8.27
2022-12-08T03:58:34.298Z,7.63
2022-12-08T04:08:39.892Z,8.27
2022-12-08T04:18:42.307Z,7.10
2022-12-08T04:28:44.718Z,7.30
2022-12-08T04:38:47.193Z,7.87
2022-12-08T04:48:49.758Z,10.70
2022-12-08T04:58:52.051Z,9.83
2022-12-08T05:08:54.377Z,9.23
2022-12-08T05:18:56.663Z,8.67
2022-12-08T05:28:59.429Z,8.13
2022-12-08T05:39:02.019Z,7.70
2022-12-08T05:49:05.146Z,7.70
2022-12-08T05:59:08.549Z,7.27
2022-12-08T06:09:12.985Z,8.37
2022-12-08T06:19:16.987Z,8.07
2022-12-08T06:29:19.995Z,8.70
2022-12-08T06:39:23.181Z,8.73
2022-12-08T06:49:26.239Z,7.83
2022-12-08T06:59:29.438Z,8.77
2022-12-08T07:09:31.984Z,9.10
2022-12-08T07:19:34.470Z,9.40
2022-12-08T07:29:36.993Z,9.07
2022-12-08T07:39:39.814Z,9.17
2022-12-08T07:49:44.111Z,8.27
2022-12-08T07:59:47.583Z,9.27
2022-12-08T08:09:51.939Z,9.13
2022-12-08T08:29:58.197Z,9.67
2022-12-08T08:40:01.562Z,9.60
2022-12-08T08:50:05.910Z,10.73
2022-12-08T09:00:10.663Z,10.87
2022-12-08T09:10:13.483Z,12.23
2022-12-08T09:20:16.415Z,11.57
2022-12-08T09:30:19.057Z,11.97
2022-12-08T09:40:24.844Z,10.50
2022-12-08T09:50:30.861Z,10.23
2022-12-08T10:00:40.813Z,10.87
2022-12-08T10:10:58.535Z,9.87
2022-12-08T10:21:13.477Z,9.93
2022-12-08T10:31:25.238Z,10.83
2022-12-08T10:41:28.193Z,11.17
2022-12-08T10:51:40.323Z,12.33
2022-12-08T11:01:51.547Z,14.90
2022-12-08T11:12:00.006Z,12.67
2022-12-08T11:22:03.298Z,12.43
2022-12-08T11:32:13.576Z,13.75
2022-12-08T11:42:22.070Z,13.83
2022-12-08T11:52:42.814Z,15.07
2022-12-08T12:02:54.091Z,15.47
2022-12-08T12:13:35.114Z,15.37
2022-12-08T12:23:46.813Z,14.50
2022-12-08T12:33:51.459Z,16.10
2022-12-08T12:44:25.279Z,17.73
2022-12-08T12:54:29.990Z,17.00
2022-12-08T13:04:38.804Z,17.65
2022-12-08T13:14:52.839Z,20.07
2022-12-08T13:25:37.026Z,19.90
2022-12-08T13:35:46.808Z,19.27
2022-12-08T13:46:57.472Z,19.00
2022-12-08T14:06:43.478Z,16.47
2022-12-08T14:16:57.901Z,19.10
2022-12-08T14:27:03.923Z,16.50
2022-12-08T14:37:12.667Z,16.07
2022-12-08T14:47:21.966Z,16.50
2022-12-08T14:57:32.144Z,17.37
2022-12-08T15:07:49.851Z,17.00
2022-12-08T15:18:17.693Z,16.80
2022-12-08T15:28:29.438Z,16.77
2022-12-08T15:38:32.991Z,16.00
2022-12-08T15:48:38.185Z,15.87
2022-12-08T16:09:11.985Z,15.93
2022-12-08T16:19:16.620Z,12.80
2022-12-08T16:29:21.288Z,12.43
2022-12-08T16:39:24.231Z,12.73
2022-12-08T16:49:27.566Z,12.80
2022-12-08T16:59:31.607Z,12.70
2022-12-08T17:09:34.161Z,14.60
2022-12-08T17:19:37.435Z,13.70
2022-12-08T17:29:40.264Z,13.47
2022-12-08T17:39:43.274Z,14.33
2022-12-08T17:49:46.301Z,15.00
2022-12-08T17:59:49.134Z,14.73
2022-12-08T18:09:51.922Z,16.73
2022-12-08T18:19:54.738Z,14.70
2022-12-08T18:29:57.828Z,15.20
2022-12-08T18:40:00.628Z,13.90
2022-12-08T18:50:05.015Z,15.20
2022-12-08T19:00:09.594Z,13.53
2022-12-08T19:10:12.609Z,14.57
2022-12-08T19:20:15.693Z,15.57
2022-12-08T19:30:18.831Z,15.30
2022-12-08T19:40:40.183Z,14.73
2022-12-08T19:50:42.895Z,14.17
2022-12-08T20:00:47.256Z,17.03
2022-12-08T20:10:50.308Z,16.40
2022-12-08T20:20:53.045Z,16.23
2022-12-08T20:30:56.529Z,17.43
2022-12-08T20:40:59.980Z,18.27
2022-12-08T20:51:03.713Z,16.90
2022-12-08T21:01:11.911Z,16.33
2022-12-08T21:11:14.802Z,19.20
2022-12-08T21:21:18.487Z,17.83
2022-12-08T21:31:26.503Z,19.33
2022-12-08T21:41:48.360Z,17.37
2022-12-08T21:51:51.322Z,18.70
2022-12-08T22:01:54.292Z,17.47
2022-12-08T22:11:57.300Z,17.83
2022-12-08T22:22:00.299Z,16.97
2022-12-08T22:32:03.353Z,19.30
2022-12-08T22:42:06.356Z,16.77
2022-12-08T22:52:09.840Z,17.67
2022-12-08T23:02:12.597Z,16.90
2022-12-08T23:12:15.508Z,19.30
2022-12-08T23:22:18.225Z,15.17
2022-12-08T23:32:20.726Z,16.13
2022-12-08T23:42:23.815Z,15.33
2022-12-08T23:52:26.756Z,14.53
